Time;durP1;ratioP1;P1;durP2;ratioP2;P2;SDS_P1;SDS_P2;PMS_P1;PMS_P2;Temp;Humidity;BMP_temperature;BMP_pressure;BME280_temperature;BME280_humidity;BME280_pressure;Samples;Min_cycle;Max_cycle;Signal;HPM_P1;HPM_P2
2021/08/10 00:00:32;;;;;;;;;33.00;32.00;;;;;21.47;59.11;101242.22;5071654;27;44710;-92
2021/08/10 00:02:57;;;;;;;;;45.00;37.75;;;;;21.57;59.65;101253.00;5075707;27;44735;-92
2021/08/10 00:05:24;;;;;;;;;38.50;35.25;;;;;21.84;59.38;101303.56;5106546;27;44847;-92
2021/08/10 00:07:50;;;;;;;;;35.00;33.25;;;;;21.83;59.65;101315.41;5122472;27;45317;-92
2021/08/10 00:10:15;;;;;;;;;26.50;25.00;;;;;21.82;59.55;101300.19;5093591;27;44861;-92
2021/08/10 00:12:41;;;;;;;;;43.00;37.00;;;;;21.44;59.49;101247.94;5085909;27;44705;-91
2021/08/10 00:15:07;;;;;;;;;31.25;30.00;;;;;21.72;59.48;101291.22;5063095;27;44842;-91
2021/08/10 00:17:32;;;;;;;;;40.33;36.33;;;;;21.64;59.64;101267.63;5060367;27;45051;-91
2021/08/10 00:19:59;;;;;;;;;41.75;37.50;;;;;21.60;59.30;101255.41;5088945;27;44734;-92
2021/08/10 00:22:25;;;;;;;;;;;;;;;21.79;59.21;101295.94;5096304;27;44658;-90
2021/08/10 00:24:51;;;;;;;;;34.00;32.50;;;;;21.59;59.51;101265.41;5090660;27;44904;-93
2021/08/10 00:27:17;;;;;;;;;47.00;39.50;;;;;21.66;59.70;101273.75;5069297;28;45122;-91
2021/08/10 00:29:42;;;;;;;;;35.25;33.75;;;;;21.79;59.33;101295.06;5062177;27;44833;-93
2021/08/10 00:32:08;;;;;;;;;38.75;35.00;;;;;21.77;59.31;101297.06;5090538;27;44904;-91
2021/08/10 00:34:33;;;;;;;;;38.75;34.50;;;;;21.75;59.01;101299.09;5092765;27;44977;-92
2021/08/10 00:36:59;;;;;;;;;35.50;33.00;;;;;21.42;59.19;101235.44;5093126;27;45194;-92
2021/08/10 00:39:24;;;;;;;;;42.50;37.25;;;;;21.49;58.99;101251.91;5077765;27;44861;-92
2021/08/10 00:41:50;;;;;;;;;29.25;28.25;;;;;21.63;59.25;101271.34;5107144;27;45595;-92
2021/08/10 00:44:15;;;;;;;;;46.50;39.75;;;;;21.59;59.46;101267.22;5094463;27;44956;-91
2021/08/10 00:46:42;;;;;;;;;34.00;32.25;;;;;21.61;59.81;101270.63;5092032;27;53429;-92
2021/08/10 00:49:07;;;;;;;;;37.50;34.25;;;;;21.33;59.60;101221.97;5086628;27;44831;-92
2021/08/10 00:51:33;;;;;;;;;34.75;32.75;;;;;21.59;59.91;101268.09;5066010;28;44761;-90
2021/08/10 00:53:59;;;;;;;;;34.00;31.50;;;;;21.51;59.37;101263.44;5075881;28;44805;-90
2021/08/10 00:56:24;;;;;;;;;42.50;37.50;;;;;21.68;60.06;101293.38;5083113;28;45396;-93
2021/08/10 00:58:51;;;;;;;;;37.25;34.00;;;;;21.68;59.76;101296.06;5078778;28;44793;-93
2021/08/10 01:01:17;;;;;;;;;41.75;37.25;;;;;21.69;60.40;101305.91;5093911;27;44662;-94
2021/08/10 01:03:42;;;;;;;;;25.50;24.75;;;;;21.29;60.39;101243.03;5069136;28;44953;-91
2021/08/10 01:06:12;;;;;;;;;37.00;34.25;;;;;21.50;59.72;101282.50;5059723;28;45205;-91
2021/08/10 01:09:04;;;;;;;;;23.50;23.50;;;;;21.24;59.99;101248.03;5071052;28;44821;-92
2021/08/10 01:11:45;;;;;;;;;41.50;35.50;;;;;21.63;59.62;101323.59;5068779;27;44856;-91
2021/08/10 01:14:19;;;;;;;;;36.75;34.00;;;;;21.61;61.06;101322.03;5086976;27;45028;-92
2021/08/10 01:17:00;;;;;;;;;14.25;14.25;;;;;21.47;61.04;101301.75;5106380;27;45262;-91
2021/08/10 01:20:02;;;;;;;;;35.25;33.50;;;;;21.45;60.88;101307.31;5095616;27;45090;-90
2021/08/10 01:22:28;;;;;;;;;19.25;19.00;;;;;21.49;60.68;101324.09;5076154;28;44801;-92
2021/08/10 01:25:27;;;;;;;;;43.00;37.50;;;;;21.49;60.93;101326.81;5095273;27;44830;-93
2021/08/10 01:28:08;;;;;;;;;56.25;47.50;;;;;21.46;61.29;101327.94;5094903;27;45185;-92
2021/08/10 01:31:05;;;;;;;;;44.33;39.00;;;;;21.03;62.69;101266.19;5098385;27;44769;-91
2021/08/10 01:33:44;;;;;;;;;52.00;43.33;;;;;21.38;62.36;101314.31;5102502;27;44886;-92
2021/08/10 01:36:10;;;;;;;;;50.00;43.00;;;;;21.10;62.51;101274.56;5075300;27;44820;-92
2021/08/10 01:38:35;;;;;;;;;39.00;35.00;;;;;21.22;62.32;101283.34;5094732;27;45309;-91
2021/08/10 01:41:01;;;;;;;;;36.00;34.00;;;;;21.29;62.17;101307.94;5075182;28;44784;-92
2021/08/10 01:43:29;;;;;;;;;51.25;43.00;;;;;21.08;62.85;101284.69;5090339;28;44868;-92
2021/08/10 01:45:55;;;;;;;;;20.25;20.25;;;;;21.27;62.29;101309.94;5095555;27;44871;-91
2021/08/10 01:48:21;;;;;;;;;41.25;36.25;;;;;21.15;62.29;101282.22;5067225;28;44959;-91
2021/08/10 01:50:46;;;;;;;;;36.50;33.75;;;;;21.07;62.62;101271.31;5099528;27;44783;-90
2021/08/10 01:53:14;;;;;;;;;27.75;25.75;;;;;21.27;62.58;101305.38;5098229;27;44846;-91
2021/08/10 01:55:39;;;;;;;;;49.00;42.25;;;;;21.17;62.87;101293.75;5102356;27;44820;-90
2021/08/10 01:58:07;;;;;;;;;27.75;27.75;;;;;21.07;62.55;101276.72;5094525;28;45037;-91
2021/08/10 02:00:33;;;;;;;;;18.25;17.25;;;;;21.27;64.96;101307.25;5071623;28;44803;-90
2021/08/10 02:03:01;;;;;;;;;28.25;28.25;;;;;21.16;64.59;101308.25;5070238;27;44738;-91
2021/08/10 02:05:26;;;;;;;;;34.33;32.67;;;;;20.85;63.05;101270.63;5087635;27;44911;-91
2021/08/10 02:07:52;;;;;;;;;36.00;34.50;;;;;21.07;64.65;101301.03;5082756;27;45795;-91
2021/08/10 02:10:18;;;;;;;;;38.25;35.25;;;;;20.91;64.56;101289.84;5085639;28;44742;-91
2021/08/10 02:12:43;;;;;;;;;47.00;40.25;;;;;21.11;64.03;101326.78;5059659;28;45109;-92
2021/08/10 02:15:09;;;;;;;;;38.75;33.75;;;;;20.74;64.98;101260.81;5074201;27;44913;-91
2021/08/10 02:17:35;;;;;;;;;35.75;34.00;;;;;20.89;64.12;101294.53;5085815;27;45036;-92
2021/08/10 02:20:00;;;;;;;;;46.25;40.00;;;;;20.89;64.43;101296.38;5069508;28;44770;-92
2021/08/10 02:22:26;;;;;;;;;30.67;29.67;;;;;21.03;64.90;101327.50;5104789;27;44694;-92
2021/08/10 02:25:07;;;;;;;;;22.75;22.75;;;;;20.81;64.85;101283.56;5094984;27;44904;-92
2021/08/10 02:27:42;;;;;;;;;15.75;14.75;;;;;20.96;64.42;101307.47;5095643;27;45048;-90
2021/08/10 02:30:10;;;;;;;;;34.50;33.50;;;;;20.90;64.64;101295.38;5095426;27;45112;-92
2021/08/10 02:32:36;;;;;;;;;41.25;36.75;;;;;20.95;64.64;101295.81;5099213;27;45073;-91
2021/08/10 02:35:02;;;;;;;;;19.67;18.33;;;;;20.69;64.29;101258.56;5068330;27;44933;-93
2021/08/10 02:37:28;;;;;;;;;47.75;41.25;;;;;20.62;64.75;101250.19;5069074;27;44961;-92
2021/08/10 02:39:53;;;;;;;;;46.50;39.50;;;;;20.65;64.68;101268.81;5082335;28;44691;-92
2021/08/10 02:42:19;;;;;;;;;44.25;38.25;;;;;20.86;67.26;101300.22;5086591;27;44718;-93
2021/08/10 02:44:45;;;;;;;;;31.75;30.50;;;;;20.58;65.46;101259.56;5065717;28;44793;-92
2021/08/10 02:47:11;;;;;;;;;43.67;38.33;;;;;20.71;65.65;101272.78;5069654;27;45405;-92
2021/08/10 02:49:39;;;;;;;;;37.50;34.75;;;;;20.68;65.72;101275.75;5082499;27;45183;-92
2021/08/10 02:52:07;;;;;;;;;42.00;37.50;;;;;20.53;65.85;101261.88;5079362;28;44696;-93
2021/08/10 02:54:33;;;;;;;;;30.00;28.25;;;;;20.57;65.31;101267.81;5065710;28;45020;-90
2021/08/10 02:57:06;;;;;;;;;30.50;29.00;;;;;20.80;65.64;101314.28;5077213;28;45115;-90
2021/08/10 02:59:35;;;;;;;;;24.67;24.67;;;;;20.69;65.68;101285.59;5088956;27;44855;-93
2021/08/10 03:02:06;;;;;;;;;49.75;43.00;;;;;20.78;65.51;101300.91;5101105;27;44775;-95
2021/08/10 03:04:31;;;;;;;;;32.00;31.50;;;;;20.59;65.57;101273.94;5101639;27;44878;-90
2021/08/10 03:06:57;;;;;;;;;41.00;35.75;;;;;20.61;65.97;101266.53;5078702;28;46497;-91
2021/08/10 03:09:22;;;;;;;;;47.75;41.50;;;;;20.57;65.62;101252.47;5076853;28;44909;-91
2021/08/10 03:11:48;;;;;;;;;34.50;31.75;;;;;20.58;65.26;101258.72;5080833;28;44918;-91
2021/08/10 03:14:13;;;;;;;;;45.33;38.33;;;;;20.51;65.60;101253.91;5096668;27;44882;-91
2021/08/10 03:16:40;;;;;;;;;28.50;28.50;;;;;20.65;65.43;101271.50;5097442;28;45340;-91
2021/08/10 03:19:06;;;;;;;;;48.33;41.33;;;;;20.72;65.69;101287.97;5086608;28;44881;-91
2021/08/10 03:21:33;;;;;;;;;26.25;24.50;;;;;20.54;65.75;101263.56;5106591;27;44781;-91
2021/08/10 03:23:59;;;;;;;;;36.75;34.25;;;;;20.50;65.62;101259.44;5088171;28;44911;-90
2021/08/10 03:26:24;;;;;;;;;32.25;32.00;;;;;20.64;65.87;101282.44;5076302;27;45059;-92
2021/08/10 03:28:50;;;;;;;;;33.67;31.33;;;;;20.72;65.50;101287.97;5086997;27;44695;-93
2021/08/10 03:31:15;;;;;;;;;38.75;35.50;;;;;20.73;66.01;101297.81;5068361;27;44862;-92
2021/08/10 03:33:41;;;;;;;;;29.00;27.75;;;;;20.59;65.45;101257.72;5075954;27;44863;-92
2021/08/10 03:36:09;;;;;;;;;36.00;33.75;;;;;20.85;65.68;101303.06;5055932;27;45191;-91
2021/08/10 03:38:35;;;;;;;;;28.25;27.00;;;;;20.58;65.43;101256.88;5104100;27;44796;-91
2021/08/10 03:41:01;;;;;;;;;36.33;34.00;;;;;20.86;66.37;101293.94;5083064;27;44809;-92
2021/08/10 03:43:27;;;;;;;;;44.00;38.33;;;;;20.52;66.18;101239.41;5051324;27;44941;-92
2021/08/10 03:45:53;;;;;;;;;28.60;28.00;;;;;20.85;66.40;101284.13;5073664;27;45279;-91
2021/08/10 03:48:23;;;;;;;;;41.67;36.33;;;;;20.76;66.41;101272.34;5076357;27;44880;-91
2021/08/10 03:50:49;;;;;;;;;32.25;30.75;;;;;20.76;66.31;101278.59;5073487;27;44903;-91
2021/08/10 03:53:15;;;;;;;;;34.00;33.00;;;;;20.66;66.22;101267.81;5103345;27;45021;-93
2021/08/10 03:55:40;;;;;;;;;45.50;38.50;;;;;20.58;66.05;101256.88;5070091;27;45316;-92
2021/08/10 03:58:07;;;;;;;;;37.00;34.00;;;;;20.62;65.92;101262.84;5070826;27;44928;-92
2021/08/10 04:00:36;;;;;;;;;43.25;36.50;;;;;20.78;66.82;101291.94;5101181;27;44785;-92
2021/08/10 04:03:05;;;;;;;;;43.67;37.67;;;;;20.77;66.33;101292.97;5076004;27;44849;-91
2021/08/10 04:05:30;;;;;;;;;47.00;39.75;;;;;20.71;66.00;101296.22;5101835;27;45119;-91
2021/08/10 04:07:55;;;;;;;;;30.00;29.00;;;;;20.60;66.24;101279.19;5129430;27;44823;-92
2021/08/10 04:10:21;;;;;;;;;33.75;32.75;;;;;20.56;66.18;101258.84;5103891;27;44843;-93
2021/08/10 04:12:47;;;;;;;;;47.25;41.00;;;;;20.76;66.87;101302.91;5099504;27;44808;-92
2021/08/10 04:15:14;;;;;;;;;42.25;37.00;;;;;20.57;66.72;101281.31;5102389;27;45220;-90
2021/08/10 04:17:41;;;;;;;;;34.50;33.50;;;;;20.48;66.85;101259.59;5100198;27;44780;-92
2021/08/10 04:20:07;;;;;;;;;51.00;43.33;;;;;20.44;66.85;101252.78;5083713;27;44773;-92
2021/08/10 04:22:33;;;;;;;;;25.75;25.75;;;;;20.52;66.95;101271.81;5094103;27;44885;-91
2021/08/10 04:24:58;;;;;;;;;50.25;43.00;;;;;20.53;67.17;101281.59;5111234;27;45158;-92
2021/08/10 04:27:24;;;;;;;;;46.25;38.50;;;;;20.61;66.99;101288.13;5076740;27;44935;-92
2021/08/10 04:29:50;;;;;;;;;44.25;38.50;;;;;20.71;66.79;101305.19;5091551;27;44945;-92
2021/08/10 04:32:16;;;;;;;;;47.50;41.50;;;;;20.47;66.46;101274.09;5090298;27;44937;-91
2021/08/10 04:34:42;;;;;;;;;43.25;37.50;;;;;20.59;66.51;101299.09;5093344;27;45296;-90
2021/08/10 04:37:08;;;;;;;;;40.75;36.75;;;;;20.70;66.99;101311.59;5099865;27;44880;-91
2021/08/10 04:39:34;;;;;;;;;35.75;34.00;;;;;20.63;66.34;101307.78;5083423;27;44746;-92
2021/08/10 04:41:59;;;;;;;;;52.75;45.00;;;;;20.58;66.37;101297.38;5084209;27;44937;-92
2021/08/10 04:44:25;;;;;;;;;45.50;38.75;;;;;20.33;66.83;101259.16;5061467;27;45027;-92
2021/08/10 04:46:50;;;;;;;;;44.00;38.75;;;;;20.37;66.18;101267.84;5071366;27;44690;-92
2021/08/10 04:49:16;;;;;;;;;34.75;33.25;;;;;20.47;66.31;101284.91;5095995;27;44756;-91
2021/08/10 04:51:41;;;;;;;;;40.50;37.25;;;;;20.44;66.59;101281.63;5122324;27;44657;-91
2021/08/10 04:54:07;;;;;;;;;34.75;33.25;;;;;20.38;66.63;101277.63;5094442;27;45251;-91
2021/08/10 04:56:33;;;;;;;;;33.75;32.75;;;;;20.42;66.47;101286.31;5087403;27;44820;-91
2021/08/10 04:58:58;;;;;;;;;53.00;45.00;;;;;20.31;66.76;101263.00;5098158;27;44798;-90
2021/08/10 05:01:24;;;;;;;;;36.33;34.00;;;;;20.57;66.52;101302.94;5103043;27;45021;-92
2021/08/10 05:03:50;;;;;;;;;51.67;43.67;;;;;20.66;66.79;101335.34;5123499;27;45011;-92
2021/08/10 05:06:16;;;;;;;;;45.00;38.67;;;;;20.35;66.73;101277.91;5073594;27;44698;-93
2021/08/10 05:08:41;;;;;;;;;41.00;36.75;;;;;20.43;66.54;101288.84;5078147;27;44790;-93
2021/08/10 05:11:13;;;;;;;;;46.33;40.00;;;;;20.63;66.36;101324.81;5076153;27;44799;-92
2021/08/10 05:13:40;;;;;;;;;50.67;43.33;;;;;20.45;66.77;101296.81;5093074;27;45177;-93
2021/08/10 05:16:06;;;;;;;;;44.50;38.50;;;;;20.47;66.06;101301.09;5067306;27;44864;-92
2021/08/10 05:18:33;;;;;;;;;54.00;46.25;;;;;20.42;66.98;101291.72;5081068;27;44782;-92
2021/08/10 05:20:59;;;;;;;;;43.00;37.67;;;;;20.58;66.51;101318.13;5077104;27;44919;-94
2021/08/10 05:23:24;;;;;;;;;42.75;37.75;;;;;20.67;66.48;101325.41;5108007;27;45611;-91
2021/08/10 05:25:52;;;;;;;;;49.50;42.75;;;;;20.47;66.95;101292.13;5129600;27;44727;-91
2021/08/10 05:28:18;;;;;;;;;28.00;28.00;;;;;20.56;66.89;101314.75;5125663;27;44693;-92
2021/08/10 05:30:45;;;;;;;;;39.25;35.00;;;;;20.49;66.70;101304.50;5111843;27;44834;-91
2021/08/10 05:33:12;;;;;;;;;40.00;35.33;;;;;20.73;66.35;101338.34;5102685;27;45253;-91
2021/08/10 05:35:40;;;;;;;;;48.50;41.50;;;;;20.49;66.67;101300.94;5099525;27;44949;-90
2021/08/10 05:38:06;;;;;;;;;46.50;40.00;;;;;20.49;66.67;101300.94;5093922;27;44681;-90
2021/08/10 05:40:34;;;;;;;;;49.25;41.50;;;;;20.53;66.86;101310.47;5096048;27;44829;-91
2021/08/10 05:42:59;;;;;;;;;49.25;41.25;;;;;20.51;67.04;101301.66;5075384;27;45277;-91
2021/08/10 05:45:25;;;;;;;;;47.00;40.67;;;;;20.71;66.99;101336.75;5080830;27;44873;-91
2021/08/10 05:47:50;;;;;;;;;48.75;40.75;;;;;20.35;66.54;101281.50;5079690;27;44899;-91
2021/08/10 05:50:16;;;;;;;;;38.67;34.67;;;;;20.44;66.87;101289.72;5078477;27;44900;-90
2021/08/10 05:52:42;;;;;;;;;18.25;18.00;;;;;20.38;67.14;101274.94;5096141;27;45276;-90
2021/08/10 05:55:08;;;;;;;;;26.75;26.00;;;;;20.67;66.60;101320.00;5076804;27;44872;-90
2021/08/10 05:57:34;;;;;;;;;36.50;33.75;;;;;20.71;66.56;101325.94;5110758;27;44784;-92
2021/08/10 05:59:59;;;;;;;;;20.25;18.00;;;;;20.52;67.12;101289.84;5096390;27;44880;-91
2021/08/10 06:02:25;;;;;;;;;24.50;23.25;;;;;20.64;67.13;101313.03;5097155;27;46735;-89
2021/08/10 06:04:52;;;;;;;;;40.75;37.25;;;;;20.62;66.65;101300.66;5094910;27;44717;-90
2021/08/10 06:07:17;;;;;;;;;34.00;32.00;;;;;20.43;66.45;101274.53;5090958;27;44936;-91
2021/08/10 06:09:43;;;;;;;;;25.50;25.50;;;;;20.76;66.55;101331.78;5076541;27;44806;-91
2021/08/10 06:12:10;;;;;;;;;31.50;31.00;;;;;20.70;66.14;101322.41;5081110;27;45223;-90
2021/08/10 06:14:36;;;;;;;;;40.75;36.75;;;;;20.82;66.90;101336.63;5071383;27;44690;-91
2021/08/10 06:17:01;;;;;;;;;24.25;23.00;;;;;20.61;66.50;101310.63;5099012;27;44776;-91
2021/08/10 06:19:27;;;;;;;;;26.75;26.75;;;;;20.72;66.68;101335.78;5091299;27;44742;-90
2021/08/10 06:21:54;;;;;;;;;49.00;42.00;;;;;20.52;66.73;101288.00;5096159;27;45154;-89
2021/08/10 06:24:20;;;;;;;;;22.00;22.00;;;;;20.55;66.61;101284.16;5091323;27;44850;-91
2021/08/10 06:26:45;;;;;;;;;30.50;29.50;;;;;20.67;66.41;101306.47;5087351;27;44781;-91
2021/08/10 06:29:15;;;;;;;;;38.75;34.50;;;;;20.91;66.89;101351.13;5118828;27;44764;-90
2021/08/10 06:31:41;;;;;;;;;32.50;30.50;;;;;20.84;66.56;101326.50;5082015;28;45616;-92
2021/08/10 06:34:06;;;;;;;;;44.25;39.00;;;;;20.62;66.63;101285.28;5057522;28;44810;-90
2021/08/10 06:36:32;;;;;;;;;37.75;34.00;;;;;20.62;66.21;101288.00;5065957;27;44773;-90
2021/08/10 06:38:57;;;;;;;;;42.25;37.25;;;;;20.56;66.40;101271.53;5064079;27;44937;-89
2021/08/10 06:41:23;;;;;;;;;44.00;37.50;;;;;21.01;66.91;101340.31;5072708;27;45195;-89
2021/08/10 06:43:48;;;;;;;;;12.25;11.75;;;;;21.01;66.54;101334.91;5088126;27;44868;-89
2021/08/10 06:46:13;;;;;;;;;24.75;24.75;;;;;20.73;66.21;101288.84;5067695;27;44919;-90
2021/08/10 06:48:39;;;;;;;;;37.75;32.75;;;;;21.08;66.54;101340.59;5092385;27;44801;-90
2021/08/10 06:51:04;;;;;;;;;33.75;28.25;;;;;20.80;66.35;101284.56;5083498;28;46597;-91
2021/08/10 06:53:30;;;;;;;;;30.75;29.75;;;;;20.85;66.12;101284.97;5053566;27;44707;-92
2021/08/10 06:55:57;;;;;;;;;38.25;33.75;;;;;21.10;66.60;101317.81;5072150;27;44749;-92
2021/08/10 06:58:22;;;;;;;;;10.50;10.50;;;;;21.03;66.22;101295.06;5059494;28;44817;-92
2021/08/10 07:00:48;;;;;;;;;32.50;31.75;;;;;21.15;65.84;101315.53;5060621;27;45176;-92
2021/08/10 07:03:14;;;;;;;;;17.25;17.00;;;;;20.98;66.09;101297.38;5089387;27;44854;-91
2021/08/10 07:05:40;;;;;;;;;29.25;27.50;;;;;21.03;65.99;101300.47;5086271;27;44838;-89
2021/08/10 07:08:06;;;;;;;;;29.25;27.00;;;;;20.96;66.38;101286.69;5069866;27;44923;-89
2021/08/10 07:10:31;;;;;;;;;38.25;32.50;;;;;21.33;66.27;101338.25;5064241;27;46789;-90
2021/08/10 07:12:57;;;;;;;;;27.75;27.00;;;;;21.17;66.30;101313.53;5065162;28;44785;-89
2021/08/10 07:15:22;;;;;;;;;22.25;21.50;;;;;21.40;66.12;101347.47;5068955;28;44766;-89
2021/08/10 07:17:49;;;;;;;;;35.75;32.00;;;;;21.18;66.23;101306.28;5058939;28;44973;-91
2021/08/10 07:20:14;;;;;;;;;39.00;34.50;;;;;21.23;66.13;101312.06;5091149;27;45247;-91
2021/08/10 07:22:40;;;;;;;;;49.25;41.50;;;;;21.46;65.93;101346.03;5060321;27;44681;-91
2021/08/10 07:25:07;;;;;;;;;18.25;18.25;;;;;21.17;65.58;101301.88;5098608;27;44798;-92
2021/08/10 07:27:33;;;;;;;;;32.50;31.50;;;;;21.35;65.65;101320.00;5080223;27;44814;-91
2021/08/10 07:30:02;;;;;;;;;35.00;33.25;;;;;21.59;65.30;101353.81;5077085;27;45026;-91
2021/08/10 07:32:28;;;;;;;;;33.00;30.50;;;;;21.45;65.54;101333.50;5055915;27;44993;-92
2021/08/10 07:34:56;;;;;;;;;22.75;19.00;;;;;21.43;65.17;101320.13;5092470;27;44818;-91
2021/08/10 07:37:23;;;;;;;;;27.00;27.00;;;;;21.71;65.24;101360.72;5087553;27;45309;-91
2021/08/10 07:39:48;;;;;;;;;34.75;32.75;;;;;21.59;64.89;101346.56;5075908;27;45117;-92
2021/08/10 07:42:16;;;;;;;;;29.00;29.00;;;;;21.76;64.78;101354.91;5096634;27;44847;-92
2021/08/10 07:44:42;;;;;;;;;33.25;31.00;;;;;21.80;64.77;101362.56;5090238;27;44898;-93
2021/08/10 07:47:08;;;;;;;;;30.75;30.00;;;;;21.83;64.45;101363.25;5088807;27;44800;-92
2021/08/10 07:49:34;;;;;;;;;10.75;10.75;;;;;21.83;64.55;101364.13;5068124;27;45379;-92
2021/08/10 07:52:00;;;;;;;;;30.50;29.50;;;;;21.74;64.88;101343.31;5085732;27;44928;-90
2021/08/10 07:54:26;;;;;;;;;33.33;31.33;;;;;21.83;64.88;101355.13;5061180;27;44742;-92
2021/08/10 07:56:52;;;;;;;;;45.25;39.00;;;;;21.62;63.86;101321.06;5103727;27;44952;-92
2021/08/10 07:59:17;;;;;;;;;31.25;30.25;;;;;21.72;64.03;101342.66;5087349;27;45080;-92
2021/08/10 08:01:42;;;;;;;;;19.00;18.25;;;;;21.67;64.05;101316.03;5086086;27;44732;-92
2021/08/10 08:04:08;;;;;;;;;29.00;26.00;;;;;21.93;63.98;101362.22;5096410;27;45004;-91
2021/08/10 08:06:36;;;;;;;;;24.00;23.00;;;;;21.83;64.61;101339.75;5090039;27;44928;-91
2021/08/10 08:09:02;;;;;;;;;28.00;25.00;;;;;22.02;64.36;101371.28;5063601;27;45421;-92
2021/08/10 08:11:28;;;;;;;;;26.50;25.50;;;;;22.05;64.07;101386.38;5106084;27;45023;-91
2021/08/10 08:13:54;;;;;;;;;35.25;33.00;;;;;21.90;64.40;101342.72;5069313;27;44803;-90
2021/08/10 08:16:20;;;;;;;;;13.25;12.00;;;;;22.04;63.93;101363.03;5083904;27;44822;-92
2021/08/10 08:18:46;;;;;;;;;41.50;36.50;;;;;22.15;63.92;101370.06;5061984;27;45037;-91
2021/08/10 08:21:13;;;;;;;;;35.25;32.50;;;;;22.20;63.61;101367.78;5071704;27;44688;-92
2021/08/10 08:23:40;;;;;;;;;19.50;18.50;;;;;22.13;63.93;101347.72;5092162;27;44802;-92
2021/08/10 08:26:08;;;;;;;;;32.25;31.00;;;;;22.30;64.05;101363.13;5077238;27;44826;-93
2021/08/10 08:28:34;;;;;;;;;35.25;32.75;;;;;22.15;63.40;101338.44;5084269;27;46749;-92
2021/08/10 08:31:02;;;;;;;;;43.00;36.25;;;;;22.17;63.39;101335.59;5111901;27;44746;-92
2021/08/10 08:33:28;;;;;;;;;34.00;32.25;;;;;22.42;63.17;101368.34;5091044;27;44983;-92
2021/08/10 08:35:53;;;;;;;;;28.25;28.25;;;;;22.26;63.02;101333.81;5091603;27;44948;-94
2021/08/10 08:38:20;;;;;;;;;40.75;35.25;;;;;22.24;62.72;101330.41;5085461;27;44950;-93
2021/08/10 08:40:47;;;;;;;;;26.00;23.50;;;;;22.37;63.36;101338.13;5121318;27;44784;-93
2021/08/10 08:43:13;;;;;;;;;15.50;14.00;;;;;22.28;62.99;101326.38;5120651;27;44778;-92
2021/08/10 08:45:43;;;;;;;;;37.50;33.75;;;;;22.25;62.79;101310.41;5080266;27;44892;-93
2021/08/10 08:48:16;;;;;;;;;13.80;13.80;;;;;22.33;62.78;101313.22;5094945;27;45199;-94
2021/08/10 08:50:45;;;;;;;;;34.80;31.60;;;;;22.49;62.72;101333.34;5104672;27;44825;-93
2021/08/10 08:53:12;;;;;;;;;46.40;40.60;;;;;22.54;62.38;101328.28;5112551;27;44792;-94
2021/08/10 08:55:40;;;;;;;;;54.40;46.40;;;;;22.62;63.02;101336.56;5096473;27;44862;-92
2021/08/10 08:58:06;;;;;;;;;45.80;39.60;;;;;22.75;62.50;101360.53;5100632;27;45024;-95
2021/08/10 09:00:31;;;;;;;;;45.80;38.60;;;;;22.68;62.58;101329.66;5106255;27;44734;-93
2021/08/10 09:02:57;;;;;;;;;56.00;48.60;;;;;22.68;62.34;101325.06;5089133;27;44801;-91
2021/08/10 09:05:23;;;;;;;;;83.83;79.00;;;;;22.59;62.13;101293.50;5113330;27;44805;-91
2021/08/10 09:07:50;;;;;;;;;46.75;40.00;;;;;22.90;61.86;101339.13;5116159;27;45108;-93
2021/08/10 09:10:17;;;;;;;;;87.33;83.67;;;;;22.68;61.64;101307.97;5095024;27;44819;-92
2021/08/10 09:12:47;;;;;;;;;82.50;77.33;;;;;22.94;61.99;101353.22;5095000;27;44765;-91
2021/08/10 09:15:44;;;;;;;;;85.50;79.67;;;;;22.97;62.13;101354.75;5098397;27;44889;-92
2021/08/10 09:18:14;;;;;;;;;48.40;42.60;;;;;22.72;62.01;101312.06;5107312;27;45073;-91
2021/08/10 09:20:40;;;;;;;;;99.67;97.83;;;;;22.73;61.91;101310.19;5129787;27;44783;-91
2021/08/10 09:23:06;;;;;;;;;94.40;92.40;;;;;22.75;61.61;101308.19;5074612;27;44744;-94
2021/08/10 09:25:33;;;;;;;;;115.25;115.25;;;;;22.90;61.63;101324.75;5059325;28;44850;-93
2021/08/10 09:28:09;;;;;;;;;84.83;80.50;;;;;23.15;61.60;101366.41;5082142;28;45291;-93
2021/08/10 09:30:35;;;;;;;;;115.20;114.80;;;;;23.20;61.97;101357.81;5071218;27;44813;-93
2021/08/10 09:33:03;;;;;;;;;83.33;77.83;;;;;22.97;61.73;101316.81;5090040;27;44799;-92
2021/08/10 09:35:36;;;;;;;;;106.75;106.75;;;;;22.99;61.22;101328.31;5057599;27;44906;-92
2021/08/10 09:38:08;;;;;;;;;88.17;84.33;;;;;23.16;61.29;101351.84;5088614;27;45294;-92
2021/08/10 09:40:36;;;;;;;;;86.17;82.67;;;;;22.84;61.17;101304.50;5056308;28;45195;-93
2021/08/10 09:43:20;;;;;;;;;96.50;93.67;;;;;22.84;60.84;101306.38;5079084;28;44816;-92
2021/08/10 09:45:48;;;;;;;;;94.20;91.60;;;;;22.88;60.89;101311.34;5098777;27;44854;-91
2021/08/10 09:48:14;;;;;;;;;94.17;90.83;;;;;22.87;61.10;101308.78;5090669;28;45119;-94
2021/08/10 09:50:42;;;;;;;;;89.40;85.40;;;;;22.86;61.03;101318.75;5059449;27;44820;-95
2021/08/10 09:53:18;;;;;;;;;83.67;78.50;;;;;22.83;60.74;101299.28;5094914;27;44942;-94
2021/08/10 09:55:54;;;;;;;;;95.00;93.00;;;;;22.92;59.40;101320.00;5079071;27;44933;-93
2021/08/10 09:58:20;;;;;;;;;43.00;37.80;;;;;23.04;60.38;101343.13;5102305;27;45269;-94
2021/08/10 10:00:46;;;;;;;;;94.83;92.50;;;;;22.94;60.41;101326.13;5107430;27;44771;-94
2021/08/10 10:03:16;;;;;;;;;86.83;83.33;;;;;22.76;60.50;101289.06;5068038;28;44768;-93
2021/08/10 10:05:46;;;;;;;;;97.20;97.20;;;;;23.13;60.83;101343.19;5087213;27;44694;-93
2021/08/10 10:08:13;;;;;;;;;87.20;81.40;;;;;23.09;59.94;101333.69;5098656;27;45337;-93
2021/08/10 10:10:52;;;;;;;;;92.20;88.80;;;;;23.07;60.07;101334.66;5074020;27;44906;-89
2021/08/10 10:13:20;;;;;;;;;84.33;80.33;;;;;23.14;59.69;101339.47;5109806;27;44735;-91
2021/08/10 10:15:46;;;;;;;;;90.83;87.67;;;;;22.97;59.09;101320.38;5110442;27;44798;-93
2021/08/10 10:18:14;;;;;;;;;115.25;114.25;;;;;22.94;59.53;101315.28;5108244;27;45173;-94
2021/08/10 10:20:44;;;;;;;;;110.75;110.75;;;;;22.78;59.58;101289.72;5085396;27;44667;-93
2021/08/10 10:23:12;;;;;;;;;86.33;82.83;;;;;22.96;59.50;101318.66;5063476;27;44847;-95
2021/08/10 10:25:41;;;;;;;;;87.17;83.67;;;;;23.04;59.30;101343.13;5091993;27;44848;-96
2021/08/10 10:28:08;;;;;;;;;86.17;82.50;;;;;22.93;58.51;101300.84;5082015;28;45034;-94
2021/08/10 10:30:33;;;;;;;;;99.33;94.67;;;;;22.94;59.37;101296.28;5106808;27;44790;-95
2021/08/10 10:33:00;;;;;;;;;106.00;106.00;;;;;23.29;59.42;101342.44;5118859;27;44736;-92
2021/08/10 10:35:26;;;;;;;;;104.80;104.80;;;;;23.37;59.61;101336.22;5095080;27;44845;-95
2021/08/10 10:37:53;;;;;;;;;90.40;87.20;;;;;23.06;58.25;101272.44;5097233;27;44957;-95
2021/08/10 10:40:19;;;;;;;;;129.20;128.60;;;;;23.23;59.23;101288.81;5112937;27;44785;-96
2021/08/10 10:42:55;;;;;;;;;112.00;112.00;;;;;23.25;58.04;101275.97;5110753;27;44822;-95
2021/08/10 10:45:40;;;;;;;;;121.50;121.50;;;;;23.54;58.39;101319.00;5102866;27;44722;-93
2021/08/10 10:48:41;;;;;;;;;116.40;116.40;;;;;23.75;57.03;101328.59;5104984;27;45167;-95
2021/08/10 10:51:24;;;;;;;;;122.00;120.80;;;;;23.80;57.36;101320.81;5109390;27;44772;-93
2021/08/10 10:53:50;;;;;;;;;119.80;119.60;;;;;23.64;57.06;101286.31;5078710;28;44927;-94
2021/08/10 10:56:33;;;;;;;;;123.40;122.80;;;;;23.83;54.67;101306.06;5063279;27;44897;-96
2021/08/10 10:59:50;;;;;;;;;128.20;128.20;;;;;23.95;54.71;101317.47;5112872;27;46887;-94
2021/08/10 11:02:29;;;;;;;;;127.00;126.40;;;;;24.02;55.68;101314.91;5095966;27;44758;-95
2021/08/10 11:05:12;;;;;;;;;118.60;118.40;;;;;24.16;55.84;101318.91;5154964;22;46097;-93
2021/08/10 11:07:53;;;;;;;;;122.00;120.60;;;;;24.26;56.02;101316.03;5140441;27;44764;-94
2021/08/10 11:10:39;;;;;;;;;122.80;122.80;;;;;24.37;55.58;101310.25;5105193;27;45274;-94
2021/08/10 11:13:20;;;;;;;;;114.25;113.50;;;;;24.42;56.54;101298.91;5103725;27;44856;-93